Time;durP1;ratioP1;P1;durP2;ratioP2;P2;SDS_P1;SDS_P2;PMS_P1;PMS_P2;Temp;Humidity;BMP_temperature;BMP_pressure;BME280_temperature;BME280_humidity;BME280_pressure;Samples;Min_cycle;Max_cycle;Signal;HPM_P1;HPM_P2
2024/04/15 00:00:07;;;;;;;1.30;0.93;;;10.70;99.90;;;;;;5239469;27;20714;-66
2024/04/15 00:02:33;;;;;;;3.00;1.20;;;10.60;99.90;;;;;;5239988;27;20439;-65
2024/04/15 00:05:00;;;;;;;2.83;1.20;;;10.50;99.90;;;;;;5239441;27;20241;-66
2024/04/15 00:07:26;;;;;;;3.10;1.50;;;10.50;99.90;;;;;;5211499;27;20352;-66
2024/04/15 00:09:51;;;;;;;1.47;1.00;;;10.60;99.90;;;;;;5239193;27;20254;-66
2024/04/15 00:12:17;;;;;;;1.73;1.30;;;10.50;99.90;;;;;;5239644;27;20722;-65
2024/04/15 00:14:44;;;;;;;3.23;1.30;;;10.40;99.90;;;;;;5231590;27;20790;-65
2024/04/15 00:17:09;;;;;;;1.27;0.97;;;10.50;99.90;;;;;;5234212;27;20284;-67
2024/04/15 00:19:35;;;;;;;3.70;1.00;;;10.50;99.90;;;;;;5237347;27;20444;-66
2024/04/15 00:22:00;;;;;;;2.80;1.50;;;10.60;99.90;;;;;;5239942;27;20237;-65
2024/04/15 00:24:26;;;;;;;1.70;1.20;;;10.60;99.90;;;;;;5239357;27;20245;-66
2024/04/15 00:26:51;;;;;;;1.40;1.07;;;10.50;99.90;;;;;;5240207;27;20721;-67
2024/04/15 00:29:17;;;;;;;1.93;1.13;;;10.40;99.90;;;;;;5239444;27;20287;-65
2024/04/15 00:31:42;;;;;;;1.30;1.17;;;10.40;99.90;;;;;;5239127;27;20233;-66
2024/04/15 00:34:08;;;;;;;3.47;1.33;;;10.40;99.90;;;;;;5238128;27;20234;-67
2024/04/15 00:36:35;;;;;;;1.33;1.03;;;10.50;99.90;;;;;;5239787;27;20305;-67
2024/04/15 00:39:01;;;;;;;1.87;1.37;;;10.40;99.90;;;;;;5240165;27;20392;-65
2024/04/15 00:41:26;;;;;;;2.13;1.33;;;10.40;99.90;;;;;;5239318;27;20242;-65
2024/04/15 00:43:52;;;;;;;4.33;1.30;;;10.40;99.90;;;;;;5239829;27;20289;-65
2024/04/15 00:46:18;;;;;;;2.70;1.50;;;10.40;99.90;;;;;;5224353;27;20226;-65
2024/04/15 00:48:44;;;;;;;1.30;1.10;;;10.40;99.90;;;;;;5239571;27;20242;-65
2024/04/15 00:51:11;;;;;;;2.03;1.57;;;10.50;99.90;;;;;;5239036;27;20305;-65
2024/04/15 00:53:37;;;;;;;1.43;1.13;;;10.60;99.90;;;;;;5239636;27;20280;-66
2024/04/15 00:56:04;;;;;;;1.43;1.23;;;10.50;99.90;;;;;;5213102;27;20293;-66
2024/04/15 00:58:31;;;;;;;2.63;1.33;;;10.50;99.90;;;;;;5224767;27;20237;-65
2024/04/15 01:00:58;;;;;;;2.83;1.20;;;10.50;99.90;;;;;;5214000;27;20297;-66
2024/04/15 01:03:26;;;;;;;1.70;1.30;;;10.40;99.90;;;;;;5237677;27;20637;-67
2024/04/15 01:05:53;;;;;;;1.73;1.23;;;10.30;99.90;;;;;;5239516;27;20340;-65
2024/04/15 01:08:18;;;;;;;2.50;1.57;;;10.50;99.90;;;;;;5236460;27;20636;-66
2024/04/15 01:10:44;;;;;;;2.37;1.80;;;10.40;99.90;;;;;;5227917;27;20234;-66
2024/04/15 01:13:10;;;;;;;1.03;0.93;;;10.40;99.90;;;;;;5239201;27;20360;-65
2024/04/15 01:15:36;;;;;;;4.20;1.43;;;10.40;99.90;;;;;;5240567;27;20287;-67
2024/04/15 01:18:01;;;;;;;2.40;1.43;;;10.40;99.90;;;;;;5242310;27;20834;-67
2024/04/15 01:20:28;;;;;;;7.33;2.43;;;10.40;99.90;;;;;;5241871;27;20849;-66
2024/04/15 01:23:13;;;;;;;1.30;1.00;;;10.40;99.90;;;;;;5242573;27;20237;-66
2024/04/15 01:25:39;;;;;;;2.50;1.40;;;10.40;99.90;;;;;;5243219;27;20795;-65
2024/04/15 01:28:05;;;;;;;1.70;1.27;;;10.30;99.90;;;;;;5213870;27;20247;-65
2024/04/15 01:30:31;;;;;;;3.17;1.60;;;10.30;99.90;;;;;;5241154;27;20718;-65
2024/04/15 01:32:57;;;;;;;3.90;2.17;;;10.30;99.90;;;;;;5242818;27;20288;-66
2024/04/15 01:35:24;;;;;;;2.47;1.60;;;10.30;99.90;;;;;;5242346;27;20869;-65
2024/04/15 01:37:50;;;;;;;1.73;1.20;;;10.30;99.90;;;;;;5242067;27;20754;-66
2024/04/15 01:40:15;;;;;;;3.57;1.83;;;10.20;99.90;;;;;;5241682;27;20261;-65
2024/04/15 01:42:41;;;;;;;3.07;1.70;;;10.30;99.90;;;;;;5242506;27;20272;-65
2024/04/15 01:45:07;;;;;;;2.30;1.10;;;10.30;99.90;;;;;;5242292;27;20249;-65
2024/04/15 01:47:35;;;;;;;3.60;2.33;;;10.20;99.90;;;;;;5242058;27;20230;-65
2024/04/15 01:50:02;;;;;;;1.70;1.27;;;10.20;99.90;;;;;;5241669;27;20245;-65
2024/04/15 01:52:27;;;;;;;1.67;1.30;;;10.10;99.90;;;;;;5242231;27;20681;-65
2024/04/15 01:54:53;;;;;;;1.17;1.07;;;10.10;99.90;;;;;;5242130;27;20253;-65
2024/04/15 01:57:18;;;;;;;2.67;1.47;;;10.10;99.90;;;;;;5240239;27;20287;-65
2024/04/15 01:59:44;;;;;;;2.40;1.60;;;10.10;99.90;;;;;;5241216;27;20250;-65
2024/04/15 02:02:09;;;;;;;2.50;1.80;;;10.10;99.90;;;;;;5241960;27;20276;-65
2024/04/15 02:04:35;;;;;;;2.70;1.60;;;10.00;99.90;;;;;;5242165;27;20237;-65
2024/04/15 02:07:00;;;;;;;2.77;2.10;;;10.00;99.90;;;;;;5228378;27;20274;-65
2024/04/15 02:09:26;;;;;;;1.60;1.23;;;10.00;99.90;;;;;;5239253;27;20242;-65
2024/04/15 02:11:51;;;;;;;4.37;2.10;;;10.00;99.90;;;;;;5228935;27;20238;-65
2024/04/15 02:14:17;;;;;;;8.97;1.77;;;9.90;99.90;;;;;;5241605;27;20241;-65
2024/04/15 02:16:43;;;;;;;4.40;1.50;;;9.90;99.90;;;;;;5241669;27;20238;-65
2024/04/15 02:19:08;;;;;;;4.40;1.70;;;9.90;99.90;;;;;;5241546;27;20237;-65
2024/04/15 02:21:34;;;;;;;3.23;1.43;;;9.90;99.90;;;;;;5235248;27;20643;-65
2024/04/15 02:23:59;;;;;;;2.37;1.50;;;9.90;99.90;;;;;;5234249;27;20283;-65
2024/04/15 02:26:25;;;;;;;2.50;1.70;;;9.90;99.90;;;;;;5267625;27;20268;-64
2024/04/15 02:28:50;;;;;;;4.30;1.80;;;9.80;99.90;;;;;;5241292;27;20280;-65
2024/04/15 02:31:16;;;;;;;3.60;1.97;;;9.80;99.90;;;;;;5241137;27;20277;-65
2024/04/15 02:33:41;;;;;;;2.97;1.80;;;9.80;99.90;;;;;;5241482;27;20606;-65
2024/04/15 02:36:07;;;;;;;3.50;1.50;;;9.80;99.90;;;;;;5241673;27;20366;-65
2024/04/15 02:38:32;;;;;;;5.27;2.40;;;9.80;99.90;;;;;;5241246;27;20287;-64
2024/04/15 02:40:58;;;;;;;2.23;1.63;;;9.80;99.90;;;;;;5215756;27;20239;-65
2024/04/15 02:43:24;;;;;;;2.83;1.97;;;9.70;99.90;;;;;;5265475;27;20242;-65
2024/04/15 02:45:49;;;;;;;2.17;1.40;;;9.80;99.90;;;;;;5241622;27;20284;-64
2024/04/15 02:48:18;;;;;;;2.77;1.80;;;9.80;99.90;;;;;;5240942;27;20313;-65
2024/04/15 02:50:43;;;;;;;1.57;1.30;;;9.70;99.90;;;;;;5240707;27;20246;-65
2024/04/15 02:53:09;;;;;;;3.13;1.63;;;9.60;99.90;;;;;;5241332;27;20395;-65
2024/04/15 02:55:34;;;;;;;5.33;2.07;;;9.60;99.90;;;;;;5240937;27;20292;-65
2024/04/15 02:58:00;;;;;;;3.07;1.80;;;9.60;99.90;;;;;;5240887;27;20234;-65
2024/04/15 03:00:25;;;;;;;3.13;1.70;;;9.60;99.90;;;;;;5240751;27;20725;-65
2024/04/15 03:02:51;;;;;;;2.37;1.60;;;9.60;99.90;;;;;;5241577;27;20242;-65
2024/04/15 03:05:17;;;;;;;2.90;1.90;;;9.60;99.90;;;;;;5239361;27;20284;-65
2024/04/15 03:07:42;;;;;;;3.23;2.07;;;9.60;99.90;;;;;;5215660;27;20293;-65
2024/04/15 03:10:08;;;;;;;3.50;1.77;;;9.70;99.90;;;;;;5227094;27;20242;-66
2024/04/15 03:12:34;;;;;;;2.87;1.50;;;9.70;99.90;;;;;;5227340;27;20233;-66
2024/04/15 03:14:59;;;;;;;4.23;2.63;;;9.70;99.90;;;;;;5241160;27;20357;-66
2024/04/15 03:17:25;;;;;;;2.83;1.53;;;9.70;99.90;;;;;;5240671;27;20288;-65
2024/04/15 03:19:53;;;;;;;2.50;1.67;;;9.70;99.90;;;;;;5266896;27;20347;-66
2024/04/15 03:22:19;;;;;;;4.33;2.33;;;9.70;99.90;;;;;;5241049;27;20279;-66
2024/04/15 03:24:48;;;;;;;2.07;1.63;;;9.80;99.90;;;;;;5240754;27;20600;-66
2024/04/15 03:27:14;;;;;;;4.63;1.90;;;9.80;99.90;;;;;;5239333;27;20230;-65
2024/04/15 03:29:39;;;;;;;7.07;1.67;;;9.80;99.90;;;;;;5240234;27;20237;-66
2024/04/15 03:32:07;;;;;;;5.07;1.90;;;9.70;99.90;;;;;;5239865;27;20583;-65
2024/04/15 03:34:33;;;;;;;9.33;2.30;;;9.70;99.90;;;;;;5226137;27;20230;-65
2024/04/15 03:37:00;;;;;;;4.37;1.87;;;9.70;99.90;;;;;;5235484;27;20237;-65
2024/04/15 03:39:25;;;;;;;4.20;2.30;;;9.70;99.90;;;;;;5239710;27;20276;-65
2024/04/15 03:41:51;;;;;;;3.33;2.10;;;9.70;99.90;;;;;;5240740;27;20231;-65
2024/04/15 03:44:17;;;;;;;2.17;1.37;;;9.70;99.90;;;;;;5240521;27;20265;-65
2024/04/15 03:46:43;;;;;;;2.17;1.50;;;9.70;99.90;;;;;;5240640;27;20234;-66
2024/04/15 03:49:11;;;;;;;3.17;2.07;;;9.70;99.90;;;;;;5240495;27;20288;-66
2024/04/15 03:51:37;;;;;;;3.13;1.53;;;9.70;99.90;;;;;;5234170;27;20242;-67
2024/04/15 03:54:02;;;;;;;5.17;1.97;;;9.70;99.90;;;;;;5233438;27;20296;-66
2024/04/15 03:56:28;;;;;;;2.40;1.53;;;9.80;99.90;;;;;;5240591;27;20249;-66
2024/04/15 03:58:53;;;;;;;1.60;1.30;;;9.70;99.90;;;;;;5240176;27;20631;-65
2024/04/15 04:01:19;;;;;;;2.53;1.57;;;9.80;99.90;;;;;;5239702;27;20281;-65
2024/04/15 04:03:45;;;;;;;4.17;2.13;;;9.80;99.90;;;;;;5240670;27;20276;-66
2024/04/15 04:06:10;;;;;;;3.67;1.60;;;9.70;99.90;;;;;;5240436;27;20284;-66
2024/04/15 04:08:36;;;;;;;3.03;1.77;;;9.80;99.90;;;;;;5240249;27;20264;-65
2024/04/15 04:11:05;;;;;;;2.83;1.80;;;9.80;99.90;;;;;;5225998;27;20280;-67
2024/04/15 04:13:35;;;;;;;4.53;2.57;;;9.70;99.90;;;;;;5240369;27;20280;-66
2024/04/15 04:16:01;;;;;;;2.67;1.60;;;9.80;99.90;;;;;;5240595;27;20297;-66
2024/04/15 04:18:27;;;;;;;2.33;1.57;;;9.70;99.90;;;;;;5239734;27;20238;-64
2024/04/15 04:20:55;;;;;;;4.27;2.53;;;9.70;99.90;;;;;;5241405;27;20238;-65
2024/04/15 04:23:21;;;;;;;5.13;2.07;;;9.70;99.90;;;;;;5263827;27;20760;-66
2024/04/15 04:25:47;;;;;;;3.23;1.83;;;9.70;99.90;;;;;;5229160;27;20233;-65
2024/04/15 04:28:13;;;;;;;3.77;2.37;;;9.70;99.90;;;;;;5239735;27;20238;-65
2024/04/15 04:30:38;;;;;;;3.27;2.00;;;9.60;99.90;;;;;;5239481;27;20611;-66
2024/04/15 04:33:04;;;;;;;3.13;1.97;;;9.60;99.90;;;;;;5239962;27;20237;-67
2024/04/15 04:35:39;;;;;;;4.13;2.27;;;9.50;99.90;;;;;;5226289;27;20306;-66
2024/04/15 04:38:05;;;;;;;3.70;2.23;;;9.50;99.90;;;;;;5239918;27;20343;-65
2024/04/15 04:40:31;;;;;;;2.73;1.93;;;9.40;99.90;;;;;;5239152;27;20331;-65
2024/04/15 04:42:56;;;;;;;3.23;2.20;;;9.30;99.90;;;;;;5237844;27;20776;-66
2024/04/15 04:45:22;;;;;;;3.80;2.33;;;9.30;99.90;;;;;;5235350;27;20834;-64
2024/04/15 04:47:48;;;;;;;4.57;2.73;;;9.20;99.90;;;;;;5214246;27;20693;-65
2024/04/15 04:50:13;;;;;;;7.47;2.63;;;9.20;99.90;;;;;;5239803;27;20796;-66
2024/04/15 04:52:39;;;;;;;3.20;2.07;;;9.20;99.90;;;;;;5242029;27;20234;-65
2024/04/15 04:55:05;;;;;;;4.30;2.77;;;9.10;99.90;;;;;;5242170;27;20254;-65
2024/04/15 04:57:30;;;;;;;3.97;2.33;;;9.00;99.90;;;;;;5241180;27;20292;-65
2024/04/15 04:59:56;;;;;;;3.37;2.17;;;8.90;99.90;;;;;;5241475;27;20245;-65
2024/04/15 05:02:22;;;;;;;5.00;2.30;;;8.90;99.90;;;;;;5241826;27;20717;-65
2024/04/15 05:04:48;;;;;;;5.43;2.97;;;8.80;99.90;;;;;;5241909;27;20348;-65
2024/04/15 05:07:13;;;;;;;6.33;2.93;;;8.70;99.90;;;;;;5238445;27;20241;-65
2024/04/15 05:09:39;;;;;;;5.03;2.97;;;8.60;99.90;;;;;;5216827;27;20261;-65
2024/04/15 05:12:05;;;;;;;3.63;2.00;;;8.50;99.90;;;;;;5241897;27;20339;-65
2024/04/15 05:14:31;;;;;;;6.07;3.03;;;8.50;99.90;;;;;;5241353;27;20233;-65
2024/04/15 05:16:57;;;;;;;3.30;1.97;;;8.40;99.90;;;;;;5241821;27;20348;-65
2024/04/15 05:19:23;;;;;;;5.80;2.30;;;8.40;99.90;;;;;;5241523;27;20836;-65
2024/04/15 05:21:48;;;;;;;3.07;2.13;;;8.30;99.90;;;;;;5218814;27;20246;-65
2024/04/15 05:24:14;;;;;;;2.83;1.93;;;8.30;99.90;;;;;;5236816;27;20229;-66
2024/04/15 05:26:40;;;;;;;2.63;2.13;;;8.30;99.90;;;;;;5241348;27;20648;-66
2024/04/15 05:29:05;;;;;;;3.97;2.50;;;8.30;99.90;;;;;;5241090;27;20287;-65
2024/04/15 05:31:31;;;;;;;2.87;2.03;;;8.30;99.90;;;;;;5240967;27;20283;-66
2024/04/15 05:33:57;;;;;;;4.90;2.50;;;8.30;99.90;;;;;;5242013;27;20288;-66
2024/04/15 05:36:23;;;;;;;4.97;2.30;;;8.40;99.90;;;;;;5241127;27;20730;-65
2024/04/15 05:38:48;;;;;;;4.13;2.40;;;8.50;99.90;;;;;;5240975;27;20625;-65
2024/04/15 05:41:14;;;;;;;2.13;1.83;;;8.60;99.90;;;;;;5240768;27;20233;-66
2024/04/15 05:43:40;;;;;;;6.40;2.90;;;8.60;99.90;;;;;;5243262;27;20264;-65
2024/04/15 05:46:05;;;;;;;7.57;3.63;;;8.70;99.90;;;;;;5265711;27;20277;-65
2024/04/15 05:48:31;;;;;;;4.57;2.57;;;8.90;99.90;;;;;;5228798;27;20269;-64
2024/04/15 05:50:57;;;;;;;4.50;2.77;;;9.00;99.90;;;;;;5240600;27;20284;-65
2024/04/15 05:53:22;;;;;;;5.63;2.50;;;9.10;99.90;;;;;;5241351;27;20238;-66
2024/04/15 05:55:48;;;;;;;5.57;2.73;;;9.30;99.90;;;;;;5240770;27;20242;-66
2024/04/15 05:58:13;;;;;;;7.07;3.90;;;9.40;99.90;;;;;;5226884;27;20242;-67
2024/04/15 06:00:39;;;;;;;3.03;2.00;;;9.60;99.90;;;;;;5238664;27;20230;-66
2024/04/15 06:03:05;;;;;;;3.57;2.00;;;9.70;99.90;;;;;;5241022;27;20234;-65
2024/04/15 06:05:32;;;;;;;5.80;3.43;;;9.80;99.90;;;;;;5240828;27;20246;-66
2024/04/15 06:07:57;;;;;;;4.97;2.50;;;9.90;99.90;;;;;;5240933;27;20653;-66
2024/04/15 06:10:23;;;;;;;5.03;3.40;;;10.00;99.90;;;;;;5240220;27;20246;-66
2024/04/15 06:12:48;;;;;;;4.20;2.40;;;10.10;99.90;;;;;;5227239;27;20253;-66
2024/04/15 06:15:14;;;;;;;4.10;2.47;;;10.20;99.90;;;;;;5240596;27;20632;-66
2024/04/15 06:17:40;;;;;;;7.67;2.47;;;10.40;99.90;;;;;;5240665;27;20284;-67
2024/04/15 06:20:06;;;;;;;4.87;2.50;;;10.40;99.90;;;;;;5240363;27;20780;-66
2024/04/15 06:22:31;;;;;;;6.77;2.40;;;10.50;99.90;;;;;;5240620;27;20331;-66
2024/04/15 06:24:57;;;;;;;5.13;2.67;;;10.70;99.90;;;;;;5240714;27;20275;-67
2024/04/15 06:27:23;;;;;;;3.00;1.97;;;10.80;99.90;;;;;;5240877;27;20308;-66
2024/04/15 06:29:48;;;;;;;2.40;1.70;;;11.00;99.90;;;;;;5239622;27;20619;-67
2024/04/15 06:32:14;;;;;;;4.10;2.10;;;11.10;99.90;;;;;;5240633;27;20293;-66
2024/04/15 06:34:40;;;;;;;4.70;2.00;;;11.30;99.90;;;;;;5226907;27;20588;-67
2024/04/15 06:37:05;;;;;;;3.23;1.93;;;11.40;99.90;;;;;;5240543;27;20284;-68
2024/04/15 06:39:31;;;;;;;4.83;1.73;;;11.30;99.90;;;;;;5239365;27;20372;-66
2024/04/15 06:41:56;;;;;;;3.13;1.63;;;11.30;99.90;;;;;;5238910;27;20678;-67
2024/04/15 06:44:22;;;;;;;2.23;1.40;;;11.20;99.90;;;;;;5266361;27;20576;-67
2024/04/15 06:46:47;;;;;;;3.47;1.57;;;11.20;99.90;;;;;;5240474;27;20671;-67
2024/04/15 06:49:13;;;;;;;2.70;1.80;;;10.90;99.90;;;;;;5240303;27;20292;-66
2024/04/15 06:51:39;;;;;;;3.40;1.87;;;10.90;99.90;;;;;;5219870;27;20583;-66
2024/04/15 06:54:05;;;;;;;2.90;1.50;;;11.00;99.90;;;;;;5219193;27;20284;-67
2024/04/15 06:56:36;;;;;;;2.00;1.27;;;10.90;99.90;;;;;;5240152;27;20246;-67
2024/04/15 06:59:02;;;;;;;1.63;1.00;;;11.10;99.90;;;;;;5240202;27;20245;-66
2024/04/15 07:01:27;;;;;;;1.47;1.20;;;11.30;99.90;;;;;;5239361;27;20276;-68
2024/04/15 07:03:55;;;;;;;1.63;0.80;;;11.50;99.90;;;;;;5238827;27;20284;-66
2024/04/15 07:06:22;;;;;;;1.00;0.80;;;11.50;99.90;;;;;;5240153;27;20680;-67
2024/04/15 07:08:47;;;;;;;1.83;1.10;;;11.60;99.90;;;;;;5240313;27;20285;-67
2024/04/15 07:11:13;;;;;;;3.47;1.67;;;11.60;99.90;;;;;;5239509;27;20225;-67
2024/04/15 07:13:39;;;;;;;1.50;0.97;;;11.60;99.90;;;;;;5238730;27;20340;-66
2024/04/15 07:16:04;;;;;;;1.90;0.97;;;11.60;99.90;;;;;;5240041;27;20234;-67
2024/04/15 07:18:30;;;;;;;1.33;1.03;;;11.70;99.90;;;;;;5239674;27;20234;-67
2024/04/15 07:20:55;;;;;;;2.00;1.17;;;11.80;99.90;;;;;;5239517;27;20237;-68
2024/04/15 07:23:21;;;;;;;1.00;0.70;;;11.80;99.90;;;;;;5240089;27;20276;-66
2024/04/15 07:25:47;;;;;;;2.10;1.03;;;12.00;99.90;;;;;;5240122;27;20238;-67
2024/04/15 07:28:13;;;;;;;3.23;1.03;;;12.10;99.90;;;;;;5239474;27;20287;-68
2024/04/15 07:30:39;;;;;;;1.20;0.70;;;12.50;99.90;;;;;;5237773;27;20234;-67
2024/04/15 07:33:04;;;;;;;1.43;0.90;;;12.90;99.90;;;;;;5239793;27;20604;-67
2024/04/15 07:35:32;;;;;;;2.73;0.90;;;13.10;99.90;;;;;;5239455;27;20280;-67
2024/04/15 07:37:57;;;;;;;1.13;0.70;;;13.30;99.90;;;;;;5239565;27;20309;-66
2024/04/15 07:40:23;;;;;;;1.80;0.90;;;13.10;99.90;;;;;;5238951;27;20238;-67
2024/04/15 07:42:48;;;;;;;3.50;1.70;;;13.10;99.90;;;;;;5239773;27;20237;-67
2024/04/15 07:45:14;;;;;;;4.20;1.30;;;13.10;99.90;;;;;;5239276;27;20284;-67
2024/04/15 07:47:40;;;;;;;2.20;0.80;;;13.20;99.90;;;;;;5213126;27;20233;-67
2024/04/15 07:50:07;;;;;;;1.40;0.67;;;13.30;99.90;;;;;;5239174;27;20242;-67
2024/04/15 07:52:32;;;;;;;2.33;0.63;;;13.10;99.90;;;;;;5239568;27;20624;-68
2024/04/15 07:54:58;;;;;;;1.30;0.40;;;12.80;99.90;;;;;;5239753;27;20246;-67
2024/04/15 07:57:23;;;;;;;0.53;0.30;;;12.50;99.90;;;;;;5239677;27;20238;-67
2024/04/15 07:59:49;;;;;;;0.40;0.30;;;12.40;99.90;;;;;;5238625;27;20261;-67
2024/04/15 08:02:15;;;;;;;0.70;0.43;;;12.20;99.90;;;;;;5239589;27;21012;-67
2024/04/15 08:04:41;;;;;;;4.43;0.50;;;12.00;99.90;;;;;;5239474;27;20234;-67
2024/04/15 08:07:06;;;;;;;2.87;0.47;;;11.90;99.90;;;;;;5239386;27;20848;-68
2024/04/15 08:09:33;;;;;;;0.47;0.30;;;11.90;99.90;;;;;;5238552;27;20284;-68
2024/04/15 08:11:58;;;;;;;0.70;0.40;;;11.90;99.90;;;;;;5265811;27;20242;-67
2024/04/15 08:14:24;;;;;;;0.87;0.60;;;11.80;99.90;;;;;;5209862;27;20778;-67
2024/04/15 08:16:50;;;;;;;1.40;0.30;;;11.80;99.90;;;;;;5239500;27;20238;-66
2024/04/15 08:19:15;;;;;;;3.33;0.67;;;11.80;99.90;;;;;;5239344;27;20406;-68
2024/04/15 08:21:41;;;;;;;0.37;0.30;;;11.50;99.90;;;;;;5238713;27;20246;-67
2024/04/15 08:24:06;;;;;;;1.40;0.60;;;11.40;99.90;;;;;;5238709;27;20339;-66
2024/04/15 08:26:32;;;;;;;1.27;0.57;;;11.40;99.90;;;;;;5239049;27;20241;-67
2024/04/15 08:29:00;;;;;;;0.30;0.20;;;11.70;99.90;;;;;;5239442;27;20317;-67
2024/04/15 08:31:26;;;;;;;0.33;0.30;;;11.90;99.90;;;;;;5238292;27;20872;-67
2024/04/15 08:33:51;;;;;;;0.37;0.37;;;12.30;99.90;;;;;;5265427;27;20233;-67
2024/04/15 08:36:17;;;;;;;0.83;0.60;;;12.70;99.90;;;;;;5238800;27;20875;-67
2024/04/15 08:38:44;;;;;;;2.63;0.30;;;13.00;99.90;;;;;;5231994;27;20245;-67
2024/04/15 08:41:19;;;;;;;1.13;0.30;;;13.10;99.90;;;;;;5232220;27;20728;-67
2024/04/15 08:43:47;;;;;;;1.30;0.80;;;13.20;99.90;;;;;;5232085;27;20266;-66
2024/04/15 08:46:17;;;;;;;0.50;0.30;;;13.30;99.90;;;;;;5233103;27;20230;-67
2024/04/15 08:48:43;;;;;;;1.03;0.37;;;13.40;99.90;;;;;;5225967;27;20287;-67
2024/04/15 08:51:08;;;;;;;0.73;0.50;;;13.70;99.90;;;;;;5238299;27;20715;-66
2024/04/15 08:53:34;;;;;;;1.40;0.30;;;14.10;99.90;;;;;;5238659;27;20284;-67
2024/04/15 08:56:00;;;;;;;3.30;1.30;;;14.60;99.90;;;;;;5238545;27;20774;-67
2024/04/15 08:58:26;;;;;;;2.03;0.73;;;15.00;99.90;;;;;;5224322;27;20294;-67
2024/04/15 09:00:52;;;;;;;1.30;0.50;;;15.10;99.90;;;;;;5238030;27;20765;-67
2024/04/15 09:03:19;;;;;;;4.33;0.63;;;14.90;99.90;;;;;;5238587;27;20241;-67
2024/04/15 09:05:45;;;;;;;0.30;0.23;;;15.20;99.90;;;;;;5238663;27;20241;-67
2024/04/15 09:08:10;;;;;;;0.50;0.30;;;15.50;99.90;;;;;;5238603;27;20670;-68
2024/04/15 09:10:36;;;;;;;0.60;0.37;;;15.80;99.90;;;;;;5237925;27;20773;-68
2024/04/15 09:13:02;;;;;;;1.40;0.60;;;16.10;99.90;;;;;;5237175;27;20392;-66
2024/04/15 09:15:27;;;;;;;0.90;0.60;;;16.50;99.90;;;;;;5221518;27;20246;-66
2024/04/15 09:17:53;;;;;;;0.90;0.40;;;16.70;99.90;;;;;;5218879;27;20266;-67
2024/04/15 09:20:20;;;;;;;2.22;0.60;;;16.90;99.90;;;;;;5204910;27;20239;-66
2024/04/15 09:22:46;;;;;;;2.37;0.60;;;16.80;99.90;;;;;;5225392;27;20730;-67
2024/04/15 09:25:12;;;;;;;3.27;0.80;;;16.60;99.90;;;;;;5235151;27;20234;-66
2024/04/15 09:27:37;;;;;;;0.87;0.33;;;16.90;99.90;;;;;;5234650;27;20276;-66
2024/04/15 09:30:04;;;;;;;1.13;0.37;;;17.10;99.90;;;;;;5234457;27;20246;-67
2024/04/15 09:32:30;;;;;;;8.47;0.50;;;16.80;99.90;;;;;;5236514;27;20242;-66
2024/04/15 09:35:03;;;;;;;0.37;0.20;;;16.30;99.90;;;;;;5223234;27;20230;-67
2024/04/15 09:37:31;;;;;;;1.00;0.60;;;16.20;99.90;;;;;;5232670;27;20295;-68
2024/04/15 09:39:57;;;;;;;3.93;0.70;;;16.20;99.90;;;;;;5240784;27;20237;-69
2024/04/15 09:42:24;;;;;;;3.30;0.50;;;16.50;99.90;;;;;;5241345;27;20234;-69
2024/04/15 09:44:50;;;;;;;0.23;0.20;;;16.50;99.90;;;;;;5227611;27;20249;-68
2024/04/15 09:47:17;;;;;;;0.47;0.40;;;16.70;99.90;;;;;;5239512;27;20234;-68
2024/04/15 09:49:46;;;;;;;2.20;0.37;;;16.80;99.90;;;;;;5239478;27;20241;-68
2024/04/15 09:52:31;;;;;;;1.17;0.33;;;17.10;99.90;;;;;;5241495;27;20597;-68
2024/04/15 09:55:08;;;;;;;3.80;0.30;;;17.10;99.90;;;;;;5232147;27;20238;-69
2024/04/15 09:57:41;;;;;;;3.60;0.37;;;17.50;99.90;;;;;;5241278;27;20296;-68
2024/04/15 10:00:13;;;;;;;0.20;0.20;;;17.70;99.90;;;;;;5240631;27;20344;-69
2024/04/15 10:03:07;;;;;;;1.50;0.40;;;18.10;99.90;;;;;;5241768;27;20241;-68
2024/04/15 10:05:39;;;;;;;2.60;0.20;;;17.60;99.90;;;;;;5241068;27;20238;-68
2024/04/15 10:08:05;;;;;;;0.53;0.30;;;17.40;99.90;;;;;;5229159;27;20239;-69
2024/04/15 10:10:32;;;;;;;3.87;0.50;;;17.90;99.90;;;;;;5239180;27;20233;-69
2024/04/15 10:13:03;;;;;;;1.37;0.57;;;18.20;99.90;;;;;;5241271;27;20613;-69
2024/04/15 10:15:30;;;;;;;0.50;0.20;;;18.40;99.90;;;;;;5227572;27;20234;-68
2024/04/15 10:18:01;;;;;;;1.63;0.70;;;18.30;99.90;;;;;;5240900;27;20269;-69
2024/04/15 10:20:33;;;;;;;1.03;0.57;;;18.20;99.90;;;;;;5240220;27;20360;-68
2024/04/15 10:23:03;;;;;;;2.87;0.47;;;17.90;99.90;;;;;;5241500;27;20265;-68
2024/04/15 10:25:30;;;;;;;2.40;0.40;;;17.70;99.90;;;;;;5238965;27;20234;-67
2024/04/15 10:27:57;;;;;;;1.30;0.40;;;17.40;99.90;;;;;;5238447;27;20234;-66
2024/04/15 10:30:26;;;;;;;8.33;1.50;;;17.20;99.90;;;;;;5237912;27;20237;-68
2024/04/15 10:32:59;;;;;;;2.13;0.50;;;17.40;99.90;;;;;;5240540;27;20284;-67
2024/04/15 10:35:26;;;;;;;1.90;0.43;;;17.80;99.90;;;;;;5240337;27;20576;-67
2024/04/15 10:37:53;;;;;;;0.47;0.30;;;17.80;99.90;;;;;;5240376;27;20238;-69
2024/04/15 10:40:29;;;;;;;1.67;0.30;;;17.30;99.90;;;;;;5240119;27;20726;-67
2024/04/15 10:42:56;;;;;;;1.90;0.77;;;17.10;99.90;;;;;;5241082;27;20237;-68
2024/04/15 10:45:22;;;;;;;0.20;0.20;;;17.30;99.90;;;;;;5211319;27;20277;-67
2024/04/15 10:47:47;;;;;;;2.20;0.30;;;16.80;99.90;;;;;;5240692;27;20238;-67
2024/04/15 10:50:13;;;;;;;4.83;0.40;;;16.90;99.90;;;;;;5240279;27;20277;-68
2024/04/15 10:52:39;;;;;;;1.33;0.30;;;16.80;99.90;;;;;;5226839;27;20333;-67
2024/04/15 10:55:05;;;;;;;1.40;0.50;;;16.90;99.90;;;;;;5240873;27;20296;-68
2024/04/15 10:57:31;;;;;;;0.60;0.27;;;17.40;99.90;;;;;;5240243;27;20226;-67
2024/04/15 10:59:56;;;;;;;0.37;0.30;;;17.90;99.90;;;;;;5240096;27;20397;-67
2024/04/15 11:02:22;;;;;;;0.57;0.17;;;18.10;99.90;;;;;;5240695;27;20554;-67
2024/04/15 11:04:50;;;;;;;0.20;0.20;;;18.30;99.90;;;;;;5226934;27;20233;-67
2024/04/15 11:07:20;;;;;;;0.87;0.40;;;18.30;99.90;;;;;;5240836;27;20284;-67
2024/04/15 11:09:46;;;;;;;1.17;0.27;;;18.40;99.90;;;;;;5239876;27;20714;-67
2024/04/15 11:12:11;;;;;;;0.23;0.10;;;18.20;99.90;;;;;;5240658;27;20292;-67
2024/04/15 11:14:37;;;;;;;0.77;0.33;;;18.10;99.90;;;;;;5240318;27;20241;-66
2024/04/15 11:17:06;;;;;;;0.40;0.30;;;18.20;99.90;;;;;;5240461;27;20237;-67
2024/04/15 11:19:31;;;;;;;0.40;0.30;;;18.00;99.90;;;;;;5225782;27;20735;-66
2024/04/15 11:22:08;;;;;;;0.20;0.20;;;17.80;99.90;;;;;;5240618;27;20283;-66
2024/04/15 11:24:36;;;;;;;0.63;0.50;;;17.50;99.90;;;;;;5240321;27;20237;-66
2024/04/15 11:27:08;;;;;;;0.50;0.30;;;17.40;99.90;;;;;;5240409;27;20238;-67
2024/04/15 11:29:34;;;;;;;1.03;0.43;;;17.30;99.90;;;;;;5239401;27;20279;-67
2024/04/15 11:31:59;;;;;;;2.67;0.43;;;17.20;99.90;;;;;;5240294;27;20246;-67
2024/04/15 11:34:25;;;;;;;0.70;0.50;;;17.10;99.90;;;;;;5240105;27;20242;-67
2024/04/15 11:36:51;;;;;;;1.33;0.30;;;16.90;99.90;;;;;;5240085;27;20726;-67
2024/04/15 11:39:16;;;;;;;0.70;0.43;;;16.90;99.90;;;;;;5239808;27;20233;-67
2024/04/15 11:41:44;;;;;;;0.90;0.33;;;16.80;99.90;;;;;;5236656;27;20280;-66
2024/04/15 11:44:10;;;;;;;2.23;0.83;;;16.80;99.90;;;;;;5239936;27;20344;-67
2024/04/15 11:46:39;;;;;;;0.30;0.30;;;16.50;99.90;;;;;;5221048;27;20242;-67
2024/04/15 11:49:07;;;;;;;0.57;0.30;;;16.50;99.90;;;;;;5232002;27;20300;-67
2024/04/15 11:51:32;;;;;;;1.80;0.10;;;16.40;99.90;;;;;;5238923;27;20289;-67
2024/04/15 11:53:58;;;;;;;0.63;0.30;;;16.40;99.90;;;;;;5239819;27;20824;-67
2024/04/15 11:56:24;;;;;;;1.50;0.20;;;16.40;99.90;;;;;;5239625;27;20257;-67
2024/04/15 11:58:49;;;;;;;3.80;0.30;;;16.50;99.90;;;;;;5238868;27;20248;-66
2024/04/15 12:01:15;;;;;;;0.20;0.20;;;16.40;99.90;;;;;;5239285;27;20249;-67
2024/04/15 12:03:42;;;;;;;0.27;0.20;;;16.50;99.90;;;;;;5232116;27;20239;-67
2024/04/15 12:06:09;;;;;;;0.83;0.37;;;16.70;99.90;;;;;;5244645;27;20241;-68
2024/04/15 12:08:36;;;;;;;3.13;0.53;;;16.70;99.90;;;;;;5234739;27;20579;-67
2024/04/15 12:11:05;;;;;;;0.37;0.20;;;16.70;99.90;;;;;;5219881;27;20243;-67
2024/04/15 12:13:30;;;;;;;0.40;0.20;;;16.40;99.90;;;;;;5222256;27;20290;-67
2024/04/15 12:15:56;;;;;;;0.57;0.40;;;16.30;99.90;;;;;;5239748;27;20722;-68
2024/04/15 12:18:21;;;;;;;0.30;0.30;;;16.30;99.90;;;;;;5225379;27;20774;-66
2024/04/15 12:20:47;;;;;;;0.53;0.10;;;16.60;99.90;;;;;;5231660;27;20239;-66
2024/04/15 12:23:12;;;;;;;0.37;0.33;;;17.00;99.90;;;;;;5219482;27;20238;-67
2024/04/15 12:25:38;;;;;;;3.83;0.60;;;17.20;99.90;;;;;;5237399;27;20280;-68
2024/04/15 12:28:04;;;;;;;0.43;0.30;;;17.20;99.90;;;;;;5239126;27;20733;-67
2024/04/15 12:30:29;;;;;;;1.70;0.60;;;17.20;99.90;;;;;;5238108;27;20344;-66
2024/04/15 12:32:57;;;;;;;2.13;0.30;;;17.00;99.90;;;;;;5230548;27;20714;-68
2024/04/15 12:35:23;;;;;;;1.80;0.30;;;16.90;99.90;;;;;;5234856;27;20300;-67
2024/04/15 12:37:48;;;;;;;0.27;0.20;;;16.90;99.90;;;;;;5231539;27;20234;-68
2024/04/15 12:40:14;;;;;;;1.27;0.57;;;16.80;99.90;;;;;;5219185;27;20326;-67
2024/04/15 12:42:39;;;;;;;3.57;0.73;;;16.70;99.90;;;;;;5238772;27;20238;-66
2024/04/15 12:45:05;;;;;;;0.63;0.33;;;16.80;99.90;;;;;;5238867;27;20292;-66